Main page
METAR-TAF:

METAR-TAF

Airports :

Aalborg Airport

Aalborg, Denmark

latitude: 57-06N, longitude: 009-51E, elevation: 3 m

Current weather observation

The report was made 10 minutes ago, at 11:20 UTC
Wind 7 kt from the West, varying between Southwest and Northwest
Temperature 19°C
Humidity 83%
Pressure 1012 hPa
Visibility 10 km or more

METAR: EKYT 171120Z AUTO 28007KT 230V310 9999 BKN059/// 19/16 Q1012

Time: 13:30 (11:30 UTC)

Forecast

The report was made 3 hours and 21 minutes ago, at 08:09 UTC
Forecast valid from 17 at 09 UTC to 18 at 09 UTC
Wind 8 kt from the Southwest
Visibility 10 km or more
Broken clouds at a height of 3000 ft
Temporary
from 17 at 09 UTC to 17 at 16 UTC
Visibility: 7000 m
Few clouds at a height of 2000 ft, Cumulonimbus.
light rain showers
Becoming
from 17 at 17 UTC to 17 at 20 UTC
Wind 15 kt from the West/Southwest

TAF: EKYT 170809Z 1709/1809 23008KT 9999 BKN030 TEMPO 1709/1716 7000 -SHRA FEW020CB BECMG 1717/1720 25015KT

Weather observations and forecasts of more than 4000 airports (METAR and TAF reports).

The available stations are represented by yellow and red dots on the map.

Hover mouse over dot to see the name of the station.

Then click to see weather observations and forecasts.

To change the map : click on the green buttons with a black cross to zoom in, on the green button with a dash to zoom out, or on the green arrows for adjacent maps.


METAR-TAF: